<?xml version='1.0' encoding='UTF-8'?><gpx version="1.1" creator="JPX - https://github.com/jenetics/jpx" xmlns="http://www.topografix.com/GPX/1/1"><trk><trkseg><trkpt lat="44.8249887" lon="7.9443188"><ele>297.0</ele><time>2026-04-12T06:52:10.108Z</time></trkpt><trkpt lat="44.8250006" lon="7.9444329"><ele>297.0</ele><time>2026-04-12T06:52:14.108Z</time></trkpt><trkpt lat="44.8250434" lon="7.9445042"><ele>297.0</ele><time>2026-04-12T06:52:19.109Z</time></trkpt><trkpt lat="44.8251111" lon="7.9445556"><ele>297.0</ele><time>2026-04-12T06:52:23.135Z</time></trkpt><trkpt lat="44.8251526" lon="7.9446607"><ele>297.0</ele><time>2026-04-12T06:52:27.151Z</time></trkpt><trkpt lat="44.8251826" lon="7.9447396"><ele>297.0</ele><time>2026-04-12T06:52:31.117Z</time></trkpt><trkpt lat="44.8251999" lon="7.9448315"><ele>297.0</ele><time>2026-04-12T06:52:38.121Z</time></trkpt><trkpt lat="44.8251816" lon="7.9449302"><ele>297.0</ele><time>2026-04-12T06:52:43.136Z</time></trkpt><trkpt lat="44.8251421" lon="7.945017"><ele>297.0</ele><time>2026-04-12T06:52:48.147Z</time></trkpt><trkpt lat="44.8250831" lon="7.9450496"><ele>297.0</ele><time>2026-04-12T06:52:53.106Z</time></trkpt><trkpt lat="44.825013" lon="7.9450406"><ele>297.0</ele><time>2026-04-12T06:52:57.213Z</time></trkpt><trkpt lat="44.8249454" lon="7.9450346"><ele>297.0</ele><time>2026-04-12T06:53:02.111Z</time></trkpt><trkpt lat="44.8248834" lon="7.9450116"><ele>297.0</ele><time>2026-04-12T06:53:06.106Z</time></trkpt><trkpt lat="44.8248203" lon="7.9449834"><ele>297.0</ele><time>2026-04-12T06:53:11.109Z</time></trkpt><trkpt lat="44.824751" lon="7.9449643"><ele>297.0</ele><time>2026-04-12T06:53:16.172Z</time></trkpt><trkpt lat="44.8246769" lon="7.9449631"><ele>297.0</ele><time>2026-04-12T06:53:20.139Z</time></trkpt><trkpt lat="44.8246363" lon="7.9450349"><ele>297.0</ele><time>2026-04-12T06:53:25.164Z</time></trkpt><trkpt lat="44.8246118" lon="7.9451237"><ele>297.0</ele><time>2026-04-12T06:53:29.154Z</time></trkpt><trkpt lat="44.8246058" lon="7.9452304"><ele>297.0</ele><time>2026-04-12T06:53:33.111Z</time></trkpt><trkpt lat="44.8245984" lon="7.9453357"><ele>297.0</ele><time>2026-04-12T06:53:39.141Z</time></trkpt><trkpt lat="44.8245922" lon="7.9454362"><ele>297.0</ele><time>2026-04-12T06:53:45.11Z</time></trkpt><trkpt lat="44.8245622" lon="7.9455346"><ele>297.0</ele><time>2026-04-12T06:53:51.123Z</time></trkpt><trkpt lat="44.8244837" lon="7.9455265"><ele>297.0</ele><time>2026-04-12T06:53:58.122Z</time></trkpt><trkpt lat="44.8244192" lon="7.9455175"><ele>297.0</ele><time>2026-04-12T06:54:03.15Z</time></trkpt><trkpt lat="44.8243515" lon="7.9455036"><ele>297.0</ele><time>2026-04-12T06:54:08.122Z</time></trkpt><trkpt lat="44.8242851" lon="7.9454926"><ele>297.0</ele><time>2026-04-12T06:54:13.134Z</time></trkpt><trkpt lat="44.8242109" lon="7.945479"><ele>297.0</ele><time>2026-04-12T06:54:19.143Z</time></trkpt><trkpt lat="44.8241443" lon="7.9454551"><ele>297.0</ele><time>2026-04-12T06:54:24.112Z</time></trkpt><trkpt lat="44.8240679" lon="7.9454486"><ele>297.0</ele><time>2026-04-12T06:54:30.119Z</time></trkpt><trkpt lat="44.8240013" lon="7.9454425"><ele>297.0</ele><time>2026-04-12T06:54:36.127Z</time></trkpt><trkpt lat="44.8239322" lon="7.9454381"><ele>297.0</ele><time>2026-04-12T06:54:42.156Z</time></trkpt><trkpt lat="44.8238652" lon="7.9454652"><ele>297.0</ele><time>2026-04-12T06:54:47.134Z</time></trkpt><trkpt lat="44.8238255" lon="7.9455465"><ele>297.0</ele><time>2026-04-12T06:54:52.161Z</time></trkpt><trkpt lat="44.8237917" lon="7.9456251"><ele>297.0</ele><time>2026-04-12T06:54:58.122Z</time></trkpt><trkpt lat="44.8237306" lon="7.9456624"><ele>297.0</ele><time>2026-04-12T06:55:04.134Z</time></trkpt><trkpt lat="44.8237349" lon="7.94576"><ele>297.0</ele><time>2026-04-12T06:55:10.159Z</time></trkpt><trkpt lat="44.8237952" lon="7.9457939"><ele>297.0</ele><time>2026-04-12T06:55:15.116Z</time></trkpt><trkpt lat="44.8238448" lon="7.9458487"><ele>297.0</ele><time>2026-04-12T06:55:20.135Z</time></trkpt><trkpt lat="44.823839" lon="7.9459397"><ele>297.0</ele><time>2026-04-12T06:55:26.145Z</time></trkpt><trkpt lat="44.8237758" lon="7.9459782"><ele>297.0</ele><time>2026-04-12T06:55:32.119Z</time></trkpt><trkpt lat="44.8237009" lon="7.9459842"><ele>297.0</ele><time>2026-04-12T06:55:41.146Z</time></trkpt><trkpt lat="44.8236555" lon="7.9459154"><ele>297.0</ele><time>2026-04-12T06:55:47.156Z</time></trkpt><trkpt lat="44.8236106" lon="7.9458334"><ele>297.0</ele><time>2026-04-12T06:55:52.217Z</time></trkpt><trkpt lat="44.8235677" lon="7.9457571"><ele>297.0</ele><time>2026-04-12T06:55:57.123Z</time></trkpt><trkpt lat="44.8235359" lon="7.9456724"><ele>297.0</ele><time>2026-04-12T06:56:04.13Z</time></trkpt><trkpt lat="44.8235334" lon="7.9455811"><ele>297.0</ele><time>2026-04-12T06:56:14.133Z</time></trkpt><trkpt lat="44.8235622" lon="7.9454957"><ele>297.0</ele><time>2026-04-12T06:56:20.111Z</time></trkpt><trkpt lat="44.8235926" lon="7.9454175"><ele>297.0</ele><time>2026-04-12T06:56:26.122Z</time></trkpt><trkpt lat="44.8236094" lon="7.9453227"><ele>297.0</ele><time>2026-04-12T06:56:33.163Z</time></trkpt><trkpt lat="44.8236134" lon="7.9452216"><ele>297.0</ele><time>2026-04-12T06:56:40.156Z</time></trkpt><trkpt lat="44.8236233" lon="7.9451219"><ele>297.0</ele><time>2026-04-12T06:56:45.113Z</time></trkpt><trkpt lat="44.8236073" lon="7.945033"><ele>297.0</ele><time>2026-04-12T06:56:51.111Z</time></trkpt><trkpt lat="44.8235849" lon="7.9449459"><ele>297.0</ele><time>2026-04-12T06:56:57.166Z</time></trkpt><trkpt lat="44.8235595" lon="7.9448512"><ele>297.0</ele><time>2026-04-12T06:57:03.119Z</time></trkpt><trkpt lat="44.8235434" lon="7.9447494"><ele>297.0</ele><time>2026-04-12T06:57:09.178Z</time></trkpt><trkpt lat="44.8235195" lon="7.9446501"><ele>297.0</ele><time>2026-04-12T06:57:15.143Z</time></trkpt><trkpt lat="44.823544" lon="7.9445555"><ele>296.8571428571429</ele><time>2026-04-12T06:57:23.126Z</time></trkpt><trkpt lat="44.8235867" lon="7.9444894"><ele>296.7142857142857</ele><time>2026-04-12T06:57:30.149Z</time></trkpt><trkpt lat="44.8236553" lon="7.944466"><ele>296.57142857142856</ele><time>2026-04-12T06:57:37.109Z</time></trkpt><trkpt lat="44.8237541" lon="7.9444973"><ele>296.42857142857144</ele><time>2026-04-12T06:57:54.152Z</time></trkpt><trkpt lat="44.8238027" lon="7.944572"><ele>296.2857142857143</ele><time>2026-04-12T06:58:00.166Z</time></trkpt><trkpt lat="44.8238244" lon="7.9446554"><ele>296.14285714285717</ele><time>2026-04-12T06:58:08.286Z</time></trkpt><trkpt lat="44.8237617" lon="7.944717"><ele>296.0</ele><time>2026-04-12T06:58:14.146Z</time></trkpt><trkpt lat="44.8237086" lon="7.9447674"><ele>296.0</ele><time>2026-04-12T06:58:20.173Z</time></trkpt><trkpt lat="44.8236851" lon="7.9448608"><ele>296.0</ele><time>2026-04-12T06:58:27.158Z</time></trkpt><trkpt lat="44.823693" lon="7.944952"><ele>296.0</ele><time>2026-04-12T06:58:33.144Z</time></trkpt><trkpt lat="44.8237377" lon="7.9450286"><ele>296.0</ele><time>2026-04-12T06:58:40.11Z</time></trkpt><trkpt lat="44.8237995" lon="7.9450774"><ele>296.0</ele><time>2026-04-12T06:58:47.114Z</time></trkpt><trkpt lat="44.823864" lon="7.9450673"><ele>296.0</ele><time>2026-04-12T06:58:54.182Z</time></trkpt><trkpt lat="44.8238961" lon="7.9449754"><ele>296.0</ele><time>2026-04-12T06:59:01.113Z</time></trkpt><trkpt lat="44.8238855" lon="7.9448735"><ele>296.0</ele><time>2026-04-12T06:59:07.121Z</time></trkpt><trkpt lat="44.8238702" lon="7.944781"><ele>296.0</ele><time>2026-04-12T06:59:13.144Z</time></trkpt><trkpt lat="44.8238694" lon="7.9446815"><ele>296.0</ele><time>2026-04-12T06:59:18.147Z</time></trkpt><trkpt lat="44.8238643" lon="7.9445852"><ele>296.0</ele><time>2026-04-12T06:59:25.139Z</time></trkpt><trkpt lat="44.8238338" lon="7.9444884"><ele>296.0</ele><time>2026-04-12T06:59:31.134Z</time></trkpt><trkpt lat="44.8238039" lon="7.9444096"><ele>296.0</ele><time>2026-04-12T06:59:37.186Z</time></trkpt><trkpt lat="44.8237758" lon="7.94433"><ele>296.0</ele><time>2026-04-12T06:59:42.126Z</time></trkpt><trkpt lat="44.8237774" lon="7.9442364"><ele>296.0</ele><time>2026-04-12T06:59:49.134Z</time></trkpt><trkpt lat="44.8238192" lon="7.9441604"><ele>296.0</ele><time>2026-04-12T06:59:58.127Z</time></trkpt><trkpt lat="44.8238894" lon="7.9441955"><ele>296.0</ele><time>2026-04-12T07:00:03.11Z</time></trkpt><trkpt lat="44.8239349" lon="7.9442596"><ele>296.0</ele><time>2026-04-12T07:00:08.29Z</time></trkpt><trkpt lat="44.8239623" lon="7.9443536"><ele>296.0</ele><time>2026-04-12T07:00:14.173Z</time></trkpt><trkpt lat="44.8239642" lon="7.944458"><ele>296.0</ele><time>2026-04-12T07:00:19.172Z</time></trkpt><trkpt lat="44.8239897" lon="7.9445563"><ele>296.0</ele><time>2026-04-12T07:00:26.161Z</time></trkpt><trkpt lat="44.8240489" lon="7.9445876"><ele>296.0</ele><time>2026-04-12T07:00:34.134Z</time></trkpt><trkpt lat="44.8240937" lon="7.9445199"><ele>296.0</ele><time>2026-04-12T07:00:46.152Z</time></trkpt><trkpt lat="44.824074" lon="7.9444266"><ele>296.0</ele><time>2026-04-12T07:00:53.168Z</time></trkpt><trkpt lat="44.8240513" lon="7.9443209"><ele>296.0</ele><time>2026-04-12T07:01:01.112Z</time></trkpt><trkpt lat="44.824011" lon="7.9442416"><ele>296.0</ele><time>2026-04-12T07:01:08.174Z</time></trkpt><trkpt lat="44.8239833" lon="7.9441559"><ele>296.0</ele><time>2026-04-12T07:01:14.118Z</time></trkpt><trkpt lat="44.8239698" lon="7.9440596"><ele>296.0</ele><time>2026-04-12T07:01:20.13Z</time></trkpt><trkpt lat="44.8239995" lon="7.9439681"><ele>296.14285714285717</ele><time>2026-04-12T07:01:27.174Z</time></trkpt><trkpt lat="44.8240685" lon="7.9439537"><ele>296.2857142857143</ele><time>2026-04-12T07:01:33.154Z</time></trkpt><trkpt lat="44.8241332" lon="7.9439727"><ele>296.42857142857144</ele><time>2026-04-12T07:01:38.15Z</time></trkpt><trkpt lat="44.8241999" lon="7.9439738"><ele>296.57142857142856</ele><time>2026-04-12T07:01:44.141Z</time></trkpt><trkpt lat="44.8242559" lon="7.9439289"><ele>296.7142857142857</ele><time>2026-04-12T07:01:50.297Z</time></trkpt><trkpt lat="44.8243227" lon="7.9438977"><ele>296.8571428571429</ele><time>2026-04-12T07:01:57.122Z</time></trkpt><trkpt lat="44.8243928" lon="7.9439025"><ele>297.0</ele><time>2026-04-12T07:02:04.216Z</time></trkpt><trkpt lat="44.8244663" lon="7.9439081"><ele>297.0</ele><time>2026-04-12T07:02:13.152Z</time></trkpt><trkpt lat="44.8245299" lon="7.9439255"><ele>297.0</ele><time>2026-04-12T07:02:20.11Z</time></trkpt><trkpt lat="44.8245802" lon="7.9439823"><ele>297.0</ele><time>2026-04-12T07:02:30.138Z</time></trkpt><trkpt lat="44.8246165" lon="7.9440629"><ele>297.0</ele><time>2026-04-12T07:02:46.119Z</time></trkpt><trkpt lat="44.8245913" lon="7.9441619"><ele>297.0</ele><time>2026-04-12T07:02:52.114Z</time></trkpt><trkpt lat="44.8245314" lon="7.944214"><ele>297.0</ele><time>2026-04-12T07:02:57.16Z</time></trkpt><trkpt lat="44.8244556" lon="7.9442082"><ele>297.0</ele><time>2026-04-12T07:03:03.139Z</time></trkpt><trkpt lat="44.8243903" lon="7.9441845"><ele>297.0</ele><time>2026-04-12T07:03:07.108Z</time></trkpt><trkpt lat="44.8243253" lon="7.9441595"><ele>297.0</ele><time>2026-04-12T07:03:13.154Z</time></trkpt><trkpt lat="44.8242578" lon="7.9441372"><ele>297.0</ele><time>2026-04-12T07:03:19.145Z</time></trkpt><trkpt lat="44.8241917" lon="7.9441214"><ele>297.0</ele><time>2026-04-12T07:03:26.282Z</time></trkpt><trkpt lat="44.8241444" lon="7.9441958"><ele>297.0</ele><time>2026-04-12T07:03:32.165Z</time></trkpt><trkpt lat="44.8241376" lon="7.9442909"><ele>297.0</ele><time>2026-04-12T07:03:38.294Z</time></trkpt><trkpt lat="44.8241646" lon="7.9443759"><ele>297.0</ele><time>2026-04-12T07:03:44.291Z</time></trkpt><trkpt lat="44.8241873" lon="7.9444756"><ele>297.0</ele><time>2026-04-12T07:03:49.118Z</time></trkpt><trkpt lat="44.8242047" lon="7.9445805"><ele>297.0</ele><time>2026-04-12T07:03:55.212Z</time></trkpt><trkpt lat="44.8241722" lon="7.9446678"><ele>297.0</ele><time>2026-04-12T07:04:01.125Z</time></trkpt><trkpt lat="44.8241145" lon="7.94471"><ele>297.0</ele><time>2026-04-12T07:04:07.143Z</time></trkpt><trkpt lat="44.8240484" lon="7.9447456"><ele>297.0</ele><time>2026-04-12T07:04:14.31Z</time></trkpt><trkpt lat="44.8244293" lon="7.9447917"><ele>297.0</ele><time>2026-04-12T07:08:31.109Z</time></trkpt><trkpt lat="44.8244158" lon="7.9448795"><ele>297.0</ele><time>2026-04-12T07:08:34.118Z</time></trkpt><trkpt lat="44.8244887" lon="7.9449263"><ele>297.0</ele><time>2026-04-12T07:08:40.119Z</time></trkpt><trkpt lat="44.8245597" lon="7.9449443"><ele>297.0</ele><time>2026-04-12T07:08:44.13Z</time></trkpt><trkpt lat="44.8246317" lon="7.9449315"><ele>297.0</ele><time>2026-04-12T07:08:49.109Z</time></trkpt><trkpt lat="44.8247043" lon="7.9449162"><ele>297.0</ele><time>2026-04-12T07:08:55.143Z</time></trkpt><trkpt lat="44.8247689" lon="7.9449146"><ele>297.0</ele><time>2026-04-12T07:09:02.145Z</time></trkpt><trkpt lat="44.8248423" lon="7.9448882"><ele>297.0</ele><time>2026-04-12T07:10:05.105Z</time></trkpt><trkpt lat="44.8249121" lon="7.9448849"><ele>297.0</ele><time>2026-04-12T07:10:11.145Z</time></trkpt><trkpt lat="44.8249635" lon="7.944822"><ele>297.0</ele><time>2026-04-12T07:10:19.121Z</time></trkpt><trkpt lat="44.8249705" lon="7.9447095"><ele>297.0</ele><time>2026-04-12T07:10:25.175Z</time></trkpt><trkpt lat="44.8249412" lon="7.944623"><ele>297.0</ele><time>2026-04-12T07:10:31.164Z</time></trkpt><trkpt lat="44.8248695" lon="7.9446053"><ele>297.0</ele><time>2026-04-12T07:10:38.282Z</time></trkpt><trkpt lat="44.824809" lon="7.9446388"><ele>297.0</ele><time>2026-04-12T07:10:45.111Z</time></trkpt><trkpt lat="44.8247455" lon="7.9446813"><ele>297.0</ele><time>2026-04-12T07:10:51.113Z</time></trkpt><trkpt lat="44.8246815" lon="7.9447082"><ele>297.0</ele><time>2026-04-12T07:10:57.118Z</time></trkpt><trkpt lat="44.8246181" lon="7.9447227"><ele>297.0</ele><time>2026-04-12T07:11:02.122Z</time></trkpt><trkpt lat="44.8245705" lon="7.9446464"><ele>297.0</ele><time>2026-04-12T07:11:09.158Z</time></trkpt><trkpt lat="44.8245575" lon="7.944548"><ele>297.0</ele><time>2026-04-12T07:11:16.15Z</time></trkpt><trkpt lat="44.8245465" lon="7.9444603"><ele>297.0</ele><time>2026-04-12T07:11:21.113Z</time></trkpt><trkpt lat="44.824572" lon="7.9443636"><ele>297.0</ele><time>2026-04-12T07:11:27.204Z</time></trkpt><trkpt lat="44.8246263" lon="7.9443058"><ele>297.0</ele><time>2026-04-12T07:11:34.119Z</time></trkpt><trkpt lat="44.8246784" lon="7.9442507"><ele>297.0</ele><time>2026-04-12T07:11:41.118Z</time></trkpt><trkpt lat="44.8246977" lon="7.9443385"><ele>297.0</ele><time>2026-04-12T07:11:48.125Z</time></trkpt><trkpt lat="44.8246837" lon="7.9444347"><ele>297.0</ele><time>2026-04-12T07:11:55.129Z</time></trkpt><trkpt lat="44.8246741" lon="7.944524"><ele>297.0</ele><time>2026-04-12T07:12:02.12Z</time></trkpt><trkpt lat="44.8247322" lon="7.944468"><ele>297.0</ele><time>2026-04-12T07:12:12.105Z</time></trkpt><trkpt lat="44.8247923" lon="7.9444267"><ele>297.0</ele><time>2026-04-12T07:12:20.161Z</time></trkpt><trkpt lat="44.8248429" lon="7.9443642"><ele>297.0</ele><time>2026-04-12T07:12:28.104Z</time></trkpt></trkseg></trk></gpx>